Terminal Aerodrome Forecast
Issued by NWS

Home | Current Version | Previous Version | Text Only | Print | Product List | Glossary On
Versions: 1 2 3 4 5 6 7 8 9 10 11 12 13 14 15 16 17 18 19 20
000
FTUS44 KHGX 171251 AAA
TAFLBX
TAF AMD
KLBX 171251Z 1713/1812 10010KT P6SM VCTS BKN070CB BKN090
     FM171600 10010KT P6SM VCSH BKN050 BKN090
     FM180200 VRB04KT P6SM BKN060=

USA.gov is the U.S. government's official web portal to all federal, state and local government web resources and services.